createdAt,value
2018-10-06T00:00:18.671Z,53.30
2018-10-06T00:01:23.964Z,53.30
2018-10-06T00:02:29.214Z,53.20
2018-10-06T00:03:34.544Z,53.20
2018-10-06T00:04:39.838Z,53.20
2018-10-06T00:05:45.088Z,53.20
2018-10-06T00:06:50.374Z,53.90
2018-10-06T00:07:56.476Z,53.30
2018-10-06T00:09:02.616Z,53.30
2018-10-06T00:10:08.670Z,53.30
2018-10-06T00:11:14.816Z,53.30
2018-10-06T00:12:20.898Z,53.30
2018-10-06T00:13:27.063Z,53.30
2018-10-06T00:14:32.407Z,53.30
2018-10-06T00:15:37.657Z,53.30
2018-10-06T00:16:43.033Z,53.30
2018-10-06T00:17:48.283Z,53.30
2018-10-06T00:18:53.573Z,53.30
2018-10-06T00:19:58.823Z,53.30
2018-10-06T00:21:04.093Z,53.30
2018-10-06T00:22:10.064Z,53.20
2018-10-06T00:23:15.386Z,53.30
2018-10-06T00:24:21.708Z,53.30
2018-10-06T00:25:26.959Z,53.30
2018-10-06T00:26:32.287Z,53.30
2018-10-06T00:27:38.222Z,53.30
2018-10-06T00:28:43.547Z,53.30
2018-10-06T00:29:48.795Z,53.30
2018-10-06T00:30:54.434Z,53.30
2018-10-06T00:32:00.066Z,53.30
2018-10-06T00:33:05.269Z,53.30
2018-10-06T00:34:10.654Z,53.30
2018-10-06T00:35:15.937Z,53.30
2018-10-06T00:36:21.401Z,53.30
2018-10-06T00:37:27.399Z,53.30
2018-10-06T00:38:32.589Z,53.30
2018-10-06T00:39:38.636Z,53.30
2018-10-06T00:40:44.646Z,53.30
2018-10-06T00:41:49.908Z,53.30
2018-10-06T00:42:55.181Z,53.30
2018-10-06T00:44:00.437Z,53.30
2018-10-06T00:45:06.429Z,53.30
2018-10-06T00:46:12.031Z,53.30
2018-10-06T00:47:18.058Z,53.30
2018-10-06T00:48:23.995Z,53.40
2018-10-06T00:49:29.216Z,53.30
2018-10-06T00:50:34.487Z,53.30
2018-10-06T00:51:39.740Z,53.30
2018-10-06T00:52:45.007Z,53.40
2018-10-06T00:53:50.224Z,53.30
2018-10-06T00:54:55.452Z,53.30
2018-10-06T00:56:01.547Z,53.30
2018-10-06T00:57:06.788Z,53.30
2018-10-06T00:58:12.888Z,53.40
2018-10-06T00:59:18.099Z,53.40
2018-10-06T01:00:23.334Z,53.40
2018-10-06T01:01:28.568Z,53.30
2018-10-06T01:02:33.872Z,53.30
2018-10-06T01:03:39.838Z,53.30
2018-10-06T01:04:45.778Z,53.30
2018-10-06T01:05:51.724Z,53.30
2018-10-06T01:06:56.982Z,53.30
2018-10-06T01:08:03.027Z,53.30
2018-10-06T01:09:09.013Z,53.30
2018-10-06T01:10:14.989Z,53.30
2018-10-06T01:11:20.237Z,53.30
2018-10-06T01:12:25.480Z,53.30
2018-10-06T01:13:30.736Z,53.30
2018-10-06T01:14:38.973Z,53.30
2018-10-06T01:15:44.264Z,53.30
2018-10-06T01:16:49.617Z,53.30
2018-10-06T01:17:54.905Z,53.30
2018-10-06T01:19:00.163Z,53.30
2018-10-06T01:20:05.383Z,53.30
2018-10-06T01:21:11.559Z,53.30
2018-10-06T01:22:17.697Z,53.30
2018-10-06T01:23:23.061Z,53.30
2018-10-06T01:24:28.308Z,53.30
2018-10-06T01:25:33.580Z,53.30
2018-10-06T01:26:38.811Z,53.30
2018-10-06T01:27:44.183Z,53.30
2018-10-06T01:28:50.278Z,53.30
2018-10-06T01:29:55.515Z,53.30
2018-10-06T01:31:00.714Z,53.90
2018-10-06T01:32:06.164Z,53.30
2018-10-06T01:33:11.539Z,53.30
2018-10-06T01:34:16.769Z,53.30
2018-10-06T01:35:22.168Z,53.30
2018-10-06T01:36:28.137Z,53.30
2018-10-06T01:37:34.188Z,53.30
2018-10-06T01:38:39.457Z,53.30
2018-10-06T01:39:44.732Z,53.30
2018-10-06T01:40:49.977Z,53.30
2018-10-06T01:41:55.238Z,53.30
2018-10-06T01:43:00.535Z,53.30
2018-10-06T01:44:06.615Z,53.30
2018-10-06T01:45:11.946Z,53.30
2018-10-06T01:46:17.232Z,53.30
2018-10-06T01:47:22.588Z,53.30
2018-10-06T01:48:27.858Z,53.30
2018-10-06T01:49:33.141Z,53.30
2018-10-06T01:50:38.401Z,53.30
2018-10-06T01:51:43.755Z,53.30
2018-10-06T01:52:49.062Z,53.30
2018-10-06T01:53:54.433Z,53.30
2018-10-06T01:54:59.676Z,53.30
2018-10-06T01:56:05.085Z,53.30
2018-10-06T01:57:10.344Z,53.30
2018-10-06T01:58:16.532Z,53.30
2018-10-06T01:59:22.685Z,53.30
2018-10-06T02:00:27.986Z,53.30
2018-10-06T02:01:34.069Z,53.30
2018-10-06T02:02:39.318Z,53.30
2018-10-06T02:03:45.419Z,53.30
2018-10-06T02:04:50.700Z,53.30
2018-10-06T02:05:55.943Z,53.30
2018-10-06T02:07:01.263Z,53.30
2018-10-06T02:08:06.536Z,53.30
2018-10-06T02:09:12.002Z,53.30
2018-10-06T02:10:17.439Z,53.30
2018-10-06T02:11:23.456Z,53.30
2018-10-06T02:12:28.754Z,53.30
2018-10-06T02:13:34.122Z,53.30
2018-10-06T02:14:40.303Z,53.30
2018-10-06T02:15:45.656Z,53.30
2018-10-06T02:16:50.932Z,53.30
2018-10-06T02:17:56.212Z,53.30
2018-10-06T02:19:02.292Z,53.30
2018-10-06T02:20:07.545Z,53.30
2018-10-06T02:21:12.863Z,53.30
2018-10-06T02:22:18.153Z,53.30
2018-10-06T02:23:23.464Z,53.30
2018-10-06T02:24:29.548Z,53.90
2018-10-06T02:25:35.689Z,53.30
2018-10-06T02:26:40.932Z,53.30
2018-10-06T02:27:46.986Z,53.30
2018-10-06T02:28:52.997Z,53.30
2018-10-06T02:29:58.381Z,53.30
2018-10-06T02:31:03.659Z,53.30
2018-10-06T02:32:09.646Z,53.30
2018-10-06T02:33:14.891Z,53.30
2018-10-06T02:34:20.193Z,53.30
2018-10-06T02:35:25.473Z,53.30
2018-10-06T02:36:30.722Z,53.30
2018-10-06T02:37:36.137Z,53.30
2018-10-06T02:38:42.091Z,53.30
2018-10-06T02:39:47.308Z,53.30
2018-10-06T02:40:52.618Z,53.30
2018-10-06T02:41:57.937Z,53.30
2018-10-06T02:43:03.297Z,53.30
2018-10-06T02:44:08.609Z,53.30
2018-10-06T02:45:14.024Z,53.30
2018-10-06T02:46:19.297Z,53.30
2018-10-06T02:47:24.668Z,53.30
2018-10-06T02:48:29.983Z,53.30
2018-10-06T02:49:35.176Z,53.30
2018-10-06T02:50:40.420Z,53.30
2018-10-06T02:51:46.564Z,53.30
2018-10-06T02:52:51.921Z,53.30
2018-10-06T02:53:57.230Z,53.30
2018-10-06T02:55:02.485Z,53.30
2018-10-06T02:56:08.586Z,53.30
2018-10-06T02:57:13.829Z,53.30
2018-10-06T02:58:19.110Z,53.30
2018-10-06T02:59:24.421Z,53.30
2018-10-06T03:00:29.624Z,53.30
2018-10-06T03:01:35.613Z,53.30
2018-10-06T03:02:40.838Z,53.30
2018-10-06T03:03:46.024Z,53.30
2018-10-06T03:04:52.101Z,53.30
2018-10-06T03:05:58.160Z,53.30
2018-10-06T03:07:03.481Z,53.30
2018-10-06T03:08:08.838Z,53.30
2018-10-06T03:09:14.039Z,53.30
2018-10-06T03:10:20.040Z,53.30
2018-10-06T03:11:25.363Z,53.30
2018-10-06T03:12:30.625Z,53.30
2018-10-06T03:13:35.903Z,53.30
2018-10-06T03:14:41.919Z,53.30
2018-10-06T03:15:47.155Z,53.30
2018-10-06T03:16:53.149Z,53.30
2018-10-06T03:17:58.454Z,53.30
2018-10-06T03:19:04.375Z,53.30
2018-10-06T03:20:11.131Z,53.30
2018-10-06T03:21:17.116Z,53.30
2018-10-06T03:22:22.363Z,53.30
2018-10-06T03:23:28.311Z,53.30
2018-10-06T03:24:33.616Z,53.30
2018-10-06T03:25:38.874Z,53.30
2018-10-06T03:26:44.242Z,53.30
2018-10-06T03:27:49.447Z,53.30
2018-10-06T03:28:54.697Z,53.30
2018-10-06T03:30:00.790Z,53.30
2018-10-06T03:31:06.862Z,53.30
2018-10-06T03:32:13.194Z,53.30
2018-10-06T03:33:18.441Z,53.30
2018-10-06T03:34:24.575Z,53.30
2018-10-06T03:35:29.804Z,53.90
2018-10-06T03:36:35.053Z,53.30
2018-10-06T03:37:41.156Z,53.30
2018-10-06T03:38:46.349Z,53.30
2018-10-06T03:39:51.563Z,53.30
2018-10-06T03:40:57.641Z,53.40
2018-10-06T03:42:02.938Z,53.30
2018-10-06T03:43:08.174Z,53.30
2018-10-06T03:44:13.437Z,53.30
2018-10-06T03:45:18.665Z,53.30
2018-10-06T03:46:24.780Z,53.30
2018-10-06T03:47:30.013Z,53.30
2018-10-06T03:48:35.296Z,53.30
2018-10-06T03:49:40.589Z,53.30
2018-10-06T03:50:45.942Z,53.30
2018-10-06T03:51:51.142Z,53.30
2018-10-06T03:52:56.423Z,53.30
2018-10-06T03:54:02.507Z,53.30
2018-10-06T03:55:07.655Z,53.30
2018-10-06T03:56:12.929Z,53.30
2018-10-06T03:57:18.171Z,53.30
2018-10-06T03:58:24.099Z,53.30
2018-10-06T03:59:30.071Z,53.30
2018-10-06T04:00:35.292Z,53.30
2018-10-06T04:01:41.308Z,53.30
2018-10-06T04:02:47.286Z,53.30
2018-10-06T04:03:52.615Z,53.30
2018-10-06T04:04:57.828Z,53.30
2018-10-06T04:06:03.160Z,53.30
2018-10-06T04:07:08.408Z,53.30
2018-10-06T04:08:14.438Z,53.30
2018-10-06T04:09:19.654Z,53.30
2018-10-06T04:10:24.917Z,53.30
2018-10-06T04:11:30.139Z,53.30
2018-10-06T04:12:35.419Z,53.30
2018-10-06T04:13:40.654Z,53.30
2018-10-06T04:14:45.915Z,53.30
2018-10-06T04:15:51.120Z,53.30
2018-10-06T04:16:56.331Z,53.30
2018-10-06T04:18:02.354Z,53.30
2018-10-06T04:19:08.375Z,53.30
2018-10-06T04:20:13.657Z,53.30
2018-10-06T04:21:19.606Z,53.30
2018-10-06T04:22:25.615Z,53.30
2018-10-06T04:23:31.602Z,53.30
2018-10-06T04:24:36.841Z,53.30
2018-10-06T04:25:42.813Z,54.00
2018-10-06T04:26:48.152Z,53.30
2018-10-06T04:27:53.464Z,53.30
2018-10-06T04:28:58.771Z,53.30
2018-10-06T04:30:04.081Z,53.30
2018-10-06T04:31:09.325Z,53.30
2018-10-06T04:32:15.262Z,53.30
2018-10-06T04:33:21.177Z,53.30
2018-10-06T04:34:26.431Z,53.30
2018-10-06T04:35:32.387Z,53.30
2018-10-06T04:36:37.631Z,53.30
2018-10-06T04:37:42.935Z,53.30
2018-10-06T04:38:48.229Z,53.30
2018-10-06T04:39:53.421Z,53.30
2018-10-06T04:40:59.401Z,53.30
2018-10-06T04:42:04.678Z,53.30
2018-10-06T04:43:09.926Z,53.30
2018-10-06T04:44:15.066Z,53.30
2018-10-06T04:45:20.281Z,53.30
2018-10-06T04:46:25.468Z,53.30
2018-10-06T04:47:31.537Z,53.30
2018-10-06T04:48:37.561Z,53.30
2018-10-06T04:49:42.872Z,53.30
2018-10-06T04:50:48.170Z,53.30
2018-10-06T04:51:53.508Z,53.30
2018-10-06T04:52:58.827Z,53.30
2018-10-06T04:54:04.157Z,53.30
2018-10-06T04:55:09.408Z,53.30
2018-10-06T04:56:14.602Z,53.30
2018-10-06T04:57:19.865Z,53.30
2018-10-06T04:58:25.118Z,53.30
2018-10-06T04:59:30.409Z,53.30
2018-10-06T05:00:35.658Z,53.30
2018-10-06T05:01:40.822Z,53.30
2018-10-06T05:02:46.055Z,53.30
2018-10-06T05:03:51.333Z,53.30
2018-10-06T05:04:56.596Z,53.30
2018-10-06T05:06:01.825Z,53.30
2018-10-06T05:07:07.108Z,53.30
2018-10-06T05:08:12.338Z,53.20
2018-10-06T05:09:17.613Z,53.20
2018-10-06T05:10:23.605Z,53.20
2018-10-06T05:11:29.659Z,53.20
2018-10-06T05:12:35.063Z,53.20
2018-10-06T05:13:40.255Z,53.10
2018-10-06T05:14:45.496Z,53.10
2018-10-06T05:15:51.495Z,53.00
2018-10-06T05:16:56.749Z,53.00
2018-10-06T05:18:02.040Z,53.10
2018-10-06T05:19:07.294Z,53.00
2018-10-06T05:20:12.536Z,53.10
2018-10-06T05:21:18.452Z,53.10
2018-10-06T05:22:23.655Z,53.10
2018-10-06T05:23:28.969Z,53.00
2018-10-06T05:24:35.041Z,53.00
2018-10-06T05:25:40.293Z,53.00
2018-10-06T05:26:45.557Z,53.00
2018-10-06T05:27:50.888Z,52.90
2018-10-06T05:28:56.093Z,52.90
2018-10-06T05:30:01.417Z,52.90
2018-10-06T05:31:06.803Z,52.90
2018-10-06T05:32:12.074Z,52.80
2018-10-06T05:33:17.322Z,52.60
2018-10-06T05:34:22.589Z,52.60
2018-10-06T05:35:27.841Z,52.50
2018-10-06T05:36:33.233Z,52.40
2018-10-06T05:37:39.210Z,52.30
2018-10-06T05:38:44.476Z,52.20
2018-10-06T05:39:49.745Z,52.20
2018-10-06T05:40:55.426Z,52.00
2018-10-06T05:42:00.668Z,52.00
2018-10-06T05:43:06.041Z,51.90
2018-10-06T05:44:11.397Z,51.90
2018-10-06T05:45:17.451Z,52.50
2018-10-06T05:46:23.117Z,51.80
2018-10-06T05:47:29.116Z,51.60
2018-10-06T05:48:34.414Z,51.70
2018-10-06T05:49:39.698Z,51.60
2018-10-06T05:50:45.813Z,51.60
2018-10-06T05:51:51.840Z,51.50
2018-10-06T05:52:57.203Z,51.50
2018-10-06T05:54:02.453Z,51.40
2018-10-06T05:55:07.763Z,51.40
2018-10-06T05:56:13.346Z,51.40
2018-10-06T05:57:18.614Z,51.30
2018-10-06T05:58:24.948Z,51.20
2018-10-06T05:59:30.216Z,51.20
2018-10-06T06:00:36.389Z,51.10
2018-10-06T06:01:44.937Z,51.00
2018-10-06T06:02:53.917Z,51.00
2018-10-06T06:04:03.815Z,50.90
2018-10-06T06:05:12.817Z,50.90
2018-10-06T06:06:21.377Z,51.50
2018-10-06T06:07:31.742Z,50.80
2018-10-06T06:08:40.376Z,50.70
2018-10-06T06:09:50.311Z,50.70
2018-10-06T06:10:59.604Z,50.70
2018-10-06T06:12:10.130Z,50.60
2018-10-06T06:13:18.271Z,50.60
2018-10-06T06:14:27.492Z,50.60
2018-10-06T06:15:33.194Z,50.50
2018-10-06T06:16:38.424Z,50.50
2018-10-06T06:17:43.672Z,50.50
2018-10-06T06:18:49.211Z,50.50
2018-10-06T06:19:54.562Z,50.50
2018-10-06T06:20:59.802Z,50.40
2018-10-06T06:22:06.045Z,50.40
2018-10-06T06:23:12.350Z,50.40
2018-10-06T06:24:19.473Z,50.40
2018-10-06T06:25:25.871Z,50.40
2018-10-06T06:26:32.209Z,50.40
2018-10-06T06:27:38.540Z,50.30
2018-10-06T06:28:45.444Z,50.40
2018-10-06T06:29:51.784Z,50.30
2018-10-06T06:30:58.022Z,50.30
2018-10-06T06:32:04.361Z,50.30
2018-10-06T06:33:10.745Z,50.30
2018-10-06T06:34:17.920Z,50.30
2018-10-06T06:35:24.317Z,50.20
2018-10-06T06:36:30.664Z,50.30
2018-10-06T06:37:36.944Z,50.30
2018-10-06T06:38:43.897Z,50.30
2018-10-06T06:39:50.262Z,50.20
2018-10-06T06:40:56.647Z,50.30
2018-10-06T06:42:03.693Z,50.40
2018-10-06T06:43:09.827Z,50.50
2018-10-06T06:44:16.068Z,50.60
2018-10-06T06:45:21.361Z,50.60
2018-10-06T06:46:26.657Z,50.70
2018-10-06T06:47:32.625Z,50.70
2018-10-06T06:48:37.886Z,50.70
2018-10-06T06:49:43.263Z,50.70
2018-10-06T06:50:48.496Z,50.70
2018-10-06T06:51:53.730Z,50.70
2018-10-06T06:52:58.994Z,50.70
2018-10-06T06:54:04.267Z,50.60
2018-10-06T06:55:09.504Z,50.60
2018-10-06T06:56:14.745Z,50.50
2018-10-06T06:57:20.034Z,50.50
2018-10-06T06:58:26.106Z,50.50
2018-10-06T06:59:31.768Z,50.50
2018-10-06T07:00:37.075Z,50.60
2018-10-06T07:01:48.868Z,50.70
2018-10-06T07:03:00.641Z,50.70
2018-10-06T07:04:11.084Z,50.70
2018-10-06T07:05:21.215Z,50.70
2018-10-06T07:06:32.699Z,50.70
2018-10-06T07:07:39.910Z,50.60
2018-10-06T07:08:51.112Z,50.60
2018-10-06T07:10:02.467Z,50.70
2018-10-06T07:11:14.259Z,50.70
2018-10-06T07:12:23.149Z,50.60
2018-10-06T07:13:29.281Z,50.70
2018-10-06T07:14:34.570Z,50.70
2018-10-06T07:15:39.884Z,50.60
2018-10-06T07:16:45.148Z,50.50
2018-10-06T07:17:51.221Z,50.50
2018-10-06T07:18:56.472Z,50.90
2018-10-06T07:20:02.144Z,50.20
2018-10-06T07:21:07.445Z,50.20
2018-10-06T07:22:13.494Z,50.10
2018-10-06T07:23:18.760Z,50.10
2018-10-06T07:24:25.044Z,50.10
2018-10-06T07:25:30.292Z,50.10
2018-10-06T07:26:35.596Z,50.10
2018-10-06T07:27:40.905Z,50.20
2018-10-06T07:28:46.156Z,50.20
2018-10-06T07:29:52.902Z,50.20
2018-10-06T07:30:59.004Z,50.30
2018-10-06T07:32:04.265Z,50.30
2018-10-06T07:33:10.345Z,50.30
2018-10-06T07:34:15.951Z,50.30
2018-10-06T07:35:21.232Z,50.40
2018-10-06T07:36:26.677Z,50.40
2018-10-06T07:37:32.769Z,50.40
2018-10-06T07:38:38.132Z,50.40
2018-10-06T07:39:43.543Z,50.40
2018-10-06T07:40:48.927Z,50.30
2018-10-06T07:41:55.033Z,50.00
2018-10-06T07:43:01.127Z,49.70
2018-10-06T07:44:06.783Z,49.40
2018-10-06T07:45:12.183Z,49.30
2018-10-06T07:46:18.389Z,49.30
2018-10-06T07:47:23.842Z,49.40
2018-10-06T07:48:29.399Z,49.50
2018-10-06T07:49:35.553Z,49.60
2018-10-06T07:50:41.706Z,49.60
2018-10-06T07:51:47.050Z,49.70
2018-10-06T07:52:52.551Z,49.80
2018-10-06T07:53:57.853Z,49.80
2018-10-06T07:55:03.439Z,49.80
2018-10-06T07:56:09.183Z,49.90
2018-10-06T07:57:14.549Z,50.60
2018-10-06T07:58:20.186Z,49.90
2018-10-06T07:59:25.571Z,50.00
2018-10-06T08:00:30.882Z,49.90
2018-10-06T08:01:36.299Z,50.00
2018-10-06T08:02:41.716Z,50.70
2018-10-06T08:03:47.911Z,50.10
2018-10-06T08:04:53.404Z,50.10
2018-10-06T08:05:58.776Z,50.10
2018-10-06T08:07:04.246Z,50.20
2018-10-06T08:08:09.747Z,50.20
2018-10-06T08:09:15.998Z,50.20
2018-10-06T08:10:22.133Z,50.30
2018-10-06T08:11:28.302Z,50.20
2018-10-06T08:12:33.585Z,50.20
2018-10-06T08:13:38.944Z,50.30
2018-10-06T08:14:44.294Z,50.30
2018-10-06T08:15:49.797Z,50.30
2018-10-06T08:16:55.163Z,50.30
2018-10-06T08:18:00.457Z,50.30
2018-10-06T08:19:06.677Z,50.30
2018-10-06T08:20:12.037Z,50.30
2018-10-06T08:21:17.447Z,50.40
2018-10-06T08:22:23.159Z,50.40
2018-10-06T08:23:28.649Z,50.50
2018-10-06T08:24:46.200Z,50.50
2018-10-06T08:25:52.543Z,50.50
2018-10-06T08:26:57.917Z,50.50
2018-10-06T08:28:04.106Z,50.50
2018-10-06T08:29:09.395Z,50.50
2018-10-06T08:30:15.298Z,50.50
2018-10-06T08:31:20.790Z,50.50
2018-10-06T08:32:29.575Z,50.50
2018-10-06T08:33:36.601Z,50.50
2018-10-06T08:34:42.364Z,50.60
2018-10-06T08:35:51.976Z,50.70
2018-10-06T08:36:57.426Z,50.60
2018-10-06T08:38:02.982Z,50.60
2018-10-06T08:39:08.506Z,50.70
2018-10-06T08:40:18.179Z,50.70
2018-10-06T08:41:31.412Z,50.70
2018-10-06T08:42:38.191Z,50.80
2018-10-06T08:43:43.953Z,50.80
2018-10-06T08:44:58.507Z,50.80
2018-10-06T08:46:07.384Z,50.80
2018-10-06T08:47:13.936Z,50.80
2018-10-06T08:48:19.937Z,50.80
2018-10-06T08:49:26.493Z,50.80
2018-10-06T08:50:31.833Z,50.90
2018-10-06T08:51:39.255Z,50.90
2018-10-06T08:52:45.558Z,51.00
2018-10-06T08:53:52.764Z,51.00
2018-10-06T08:55:11.043Z,51.00
2018-10-06T08:56:21.079Z,51.00
2018-10-06T08:57:26.979Z,50.90
2018-10-06T08:58:32.652Z,50.90
2018-10-06T08:59:39.135Z,51.00
2018-10-06T09:00:50.204Z,51.00
2018-10-06T09:01:55.982Z,51.10
2018-10-06T09:03:01.279Z,51.20
2018-10-06T09:04:08.700Z,51.20
2018-10-06T09:05:15.114Z,51.20
2018-10-06T09:06:20.978Z,51.20
2018-10-06T09:07:26.570Z,51.40
2018-10-06T09:08:32.634Z,51.30
2018-10-06T09:09:38.099Z,51.40
2018-10-06T09:10:43.741Z,51.40
2018-10-06T09:11:52.462Z,51.30
2018-10-06T09:13:25.604Z,51.50
2018-10-06T09:14:35.720Z,51.50
2018-10-06T09:15:41.482Z,51.50
2018-10-06T09:16:46.891Z,51.50
2018-10-06T09:17:52.269Z,51.50
2018-10-06T09:18:57.729Z,51.50
2018-10-06T09:20:04.206Z,51.50
2018-10-06T09:21:09.679Z,51.60
2018-10-06T09:22:15.273Z,51.60
2018-10-06T09:23:22.322Z,51.50
2018-10-06T09:24:28.583Z,51.50
2018-10-06T09:25:38.647Z,51.30
2018-10-06T09:27:02.854Z,51.40
2018-10-06T09:28:08.812Z,51.30
2018-10-06T09:29:27.266Z,51.20
2018-10-06T09:30:46.103Z,51.30
2018-10-06T09:31:57.692Z,51.20
2018-10-06T09:33:04.105Z,51.30
2018-10-06T09:34:09.502Z,51.30
2018-10-06T09:35:15.399Z,51.40
2018-10-06T09:36:47.586Z,51.40
2018-10-06T09:37:56.464Z,51.40
2018-10-06T09:39:04.826Z,51.40
2018-10-06T09:40:10.314Z,51.40
2018-10-06T09:41:15.610Z,51.50
2018-10-06T09:42:21.170Z,51.40
2018-10-06T09:43:51.623Z,51.50
2018-10-06T09:44:57.815Z,51.50
2018-10-06T09:46:03.669Z,51.50
2018-10-06T09:47:09.470Z,51.40
2018-10-06T09:48:39.912Z,51.30
2018-10-06T09:49:46.799Z,51.30
2018-10-06T09:50:52.130Z,51.10
2018-10-06T09:52:07.437Z,51.20
2018-10-06T09:53:13.761Z,51.30
2018-10-06T09:54:19.624Z,51.20
2018-10-06T09:55:25.014Z,51.10
2018-10-06T09:56:30.261Z,51.40
2018-10-06T09:57:35.589Z,51.60
2018-10-06T09:58:41.701Z,51.50
2018-10-06T09:59:49.525Z,51.40
2018-10-06T10:00:55.665Z,51.30
2018-10-06T10:02:01.393Z,51.20
2018-10-06T10:03:06.721Z,51.10
2018-10-06T10:04:12.017Z,51.10
2018-10-06T10:05:18.252Z,51.10
2018-10-06T10:06:23.495Z,51.10
2018-10-06T10:07:29.672Z,51.10
2018-10-06T10:08:34.989Z,51.10
2018-10-06T10:09:40.355Z,51.10
2018-10-06T10:10:45.725Z,51.10
2018-10-06T10:11:51.062Z,51.10
2018-10-06T10:12:57.150Z,51.20
2018-10-06T10:14:02.426Z,51.20
2018-10-06T10:15:07.739Z,51.30
2018-10-06T10:16:13.039Z,51.30
2018-10-06T10:17:18.363Z,51.30
2018-10-06T10:18:23.823Z,51.30
2018-10-06T10:19:28.936Z,51.40
2018-10-06T10:20:35.164Z,51.40
2018-10-06T10:21:40.449Z,51.40
2018-10-06T10:22:45.841Z,51.40
2018-10-06T10:23:51.100Z,51.50
2018-10-06T10:24:57.326Z,51.40
2018-10-06T10:26:03.363Z,51.40
2018-10-06T10:27:08.731Z,51.50
2018-10-06T10:28:38.809Z,51.50
2018-10-06T10:29:44.124Z,51.30
2018-10-06T10:30:50.290Z,51.30
2018-10-06T10:31:55.761Z,51.20
2018-10-06T10:33:01.183Z,51.10
2018-10-06T10:34:06.522Z,51.10
2018-10-06T10:35:11.883Z,51.00
2018-10-06T10:36:18.664Z,51.00
2018-10-06T10:37:23.974Z,51.00
2018-10-06T10:38:29.245Z,50.90
2018-10-06T10:39:34.794Z,50.90
2018-10-06T10:40:40.064Z,50.90
2018-10-06T10:41:46.243Z,51.00
2018-10-06T10:42:52.284Z,50.90
2018-10-06T10:43:57.592Z,50.90
2018-10-06T10:45:03.098Z,50.80
2018-10-06T10:46:08.406Z,50.70
2018-10-06T10:47:13.686Z,50.80
2018-10-06T10:48:19.332Z,50.80
2018-10-06T10:49:24.958Z,50.80
2018-10-06T10:50:30.316Z,50.90
2018-10-06T10:51:35.694Z,50.70
2018-10-06T10:52:40.992Z,50.70
2018-10-06T10:53:47.135Z,50.70
2018-10-06T10:54:53.275Z,50.70
2018-10-06T10:55:58.789Z,50.70
2018-10-06T10:57:04.863Z,50.70
2018-10-06T10:58:10.187Z,50.60
2018-10-06T10:59:16.504Z,50.50
2018-10-06T11:00:21.899Z,50.50
2018-10-06T11:01:27.757Z,50.50
2018-10-06T11:02:33.126Z,50.50
2018-10-06T11:03:38.506Z,50.40
2018-10-06T11:04:43.880Z,50.40
2018-10-06T11:05:49.088Z,50.40
2018-10-06T11:06:54.484Z,50.40
2018-10-06T11:08:00.619Z,50.40
2018-10-06T11:09:05.881Z,50.40
2018-10-06T11:10:11.666Z,50.40
2018-10-06T11:11:17.049Z,50.40
2018-10-06T11:12:22.343Z,50.40
2018-10-06T11:13:28.308Z,50.40
2018-10-06T11:14:34.518Z,50.40
2018-10-06T11:15:39.943Z,50.40
2018-10-06T11:16:46.728Z,50.40
2018-10-06T11:17:52.101Z,50.40
2018-10-06T11:18:57.789Z,50.40
2018-10-06T11:20:03.168Z,50.40
2018-10-06T11:21:09.412Z,50.40
2018-10-06T11:22:14.824Z,50.30
2018-10-06T11:23:21.124Z,50.30
2018-10-06T11:24:27.069Z,50.30
2018-10-06T11:25:32.515Z,50.30
2018-10-06T11:26:38.154Z,50.30
2018-10-06T11:27:44.882Z,50.20
2018-10-06T11:28:50.774Z,50.20
2018-10-06T11:29:56.429Z,50.30
2018-10-06T11:31:01.870Z,50.20
2018-10-06T11:32:07.330Z,50.20
2018-10-06T11:33:13.073Z,50.30
2018-10-06T11:34:18.771Z,50.20
2018-10-06T11:35:24.273Z,50.30
2018-10-06T11:36:30.544Z,50.20
2018-10-06T11:37:36.204Z,50.20
2018-10-06T11:38:41.628Z,50.80
2018-10-06T11:39:49.272Z,50.10
2018-10-06T11:40:56.421Z,50.10
2018-10-06T11:42:02.640Z,50.10
2018-10-06T11:43:07.988Z,50.10
2018-10-06T11:44:14.141Z,50.10
2018-10-06T11:45:19.528Z,50.20
2018-10-06T11:46:24.967Z,50.20
2018-10-06T11:47:31.290Z,50.10
2018-10-06T11:48:36.506Z,50.20
2018-10-06T11:49:41.928Z,50.30
2018-10-06T11:50:47.269Z,50.20
2018-10-06T11:51:52.949Z,50.20
2018-10-06T11:52:59.099Z,50.10
2018-10-06T11:54:04.360Z,50.20
2018-10-06T11:55:10.581Z,50.20
2018-10-06T11:56:18.142Z,50.20
2018-10-06T11:57:23.684Z,50.10
2018-10-06T11:58:29.011Z,50.20
2018-10-06T11:59:34.253Z,50.10
2018-10-06T12:00:39.729Z,50.10
2018-10-06T12:01:44.958Z,50.00
2018-10-06T12:02:50.454Z,50.00
2018-10-06T12:03:55.783Z,50.10
2018-10-06T12:05:02.996Z,50.10
2018-10-06T12:06:08.335Z,50.10
2018-10-06T12:07:14.557Z,50.20
2018-10-06T12:08:20.606Z,50.30
2018-10-06T12:09:26.068Z,50.20
2018-10-06T12:10:32.444Z,50.20
2018-10-06T12:11:38.574Z,50.20
2018-10-06T12:12:44.710Z,50.30
2018-10-06T12:13:50.058Z,50.30
2018-10-06T12:14:55.476Z,50.30
2018-10-06T12:16:01.476Z,50.20
2018-10-06T12:17:06.977Z,50.30
2018-10-06T12:18:12.356Z,50.20
2018-10-06T12:19:18.657Z,50.10
2018-10-06T12:20:24.039Z,50.70
2018-10-06T12:21:30.156Z,50.10
2018-10-06T12:22:35.496Z,50.80
2018-10-06T12:23:41.675Z,50.20
2018-10-06T12:24:46.982Z,50.20
2018-10-06T12:25:52.462Z,50.30
2018-10-06T12:26:57.584Z,50.20
2018-10-06T12:28:03.710Z,50.20
2018-10-06T12:29:09.535Z,50.20
2018-10-06T12:30:15.641Z,50.10
2018-10-06T12:31:22.002Z,50.20
2018-10-06T12:32:27.292Z,50.20
2018-10-06T12:33:33.394Z,50.30
2018-10-06T12:34:38.779Z,51.00
2018-10-06T12:35:44.763Z,50.30
2018-10-06T12:36:50.946Z,50.30
2018-10-06T12:37:56.233Z,50.30
2018-10-06T12:39:02.329Z,50.90
2018-10-06T12:40:08.333Z,50.10
2018-10-06T12:41:14.258Z,50.00
2018-10-06T12:42:19.635Z,50.00
2018-10-06T12:43:25.667Z,49.90
2018-10-06T12:44:31.908Z,49.80
2018-10-06T12:45:37.430Z,49.90
2018-10-06T12:46:42.708Z,49.80
2018-10-06T12:47:49.055Z,49.70
2018-10-06T12:48:54.425Z,49.50
2018-10-06T12:49:59.923Z,49.50
2018-10-06T12:51:05.166Z,49.40
2018-10-06T12:52:11.304Z,49.40
2018-10-06T12:53:16.823Z,49.30
2018-10-06T12:54:22.234Z,49.20
2018-10-06T12:55:28.203Z,49.20
2018-10-06T12:56:33.447Z,49.20
2018-10-06T12:57:38.803Z,49.30
2018-10-06T12:58:44.146Z,49.40
2018-10-06T12:59:50.193Z,49.40
2018-10-06T13:00:55.478Z,49.40
2018-10-06T13:02:00.888Z,49.50
2018-10-06T13:03:06.377Z,49.40
2018-10-06T13:04:12.423Z,49.50
2018-10-06T13:05:18.171Z,49.60
2018-10-06T13:06:23.569Z,49.60
2018-10-06T13:07:29.181Z,49.60
2018-10-06T13:08:34.866Z,49.60
2018-10-06T13:09:40.125Z,49.60
2018-10-06T13:10:45.644Z,49.60
2018-10-06T13:11:51.366Z,49.40
2018-10-06T13:12:56.941Z,49.40
2018-10-06T13:14:02.336Z,49.30
2018-10-06T13:15:08.588Z,49.20
2018-10-06T13:16:14.082Z,49.10
2018-10-06T13:17:20.203Z,49.00
2018-10-06T13:18:26.471Z,49.00
2018-10-06T13:19:31.841Z,48.90
2018-10-06T13:20:37.316Z,48.90
2018-10-06T13:21:42.730Z,48.90
2018-10-06T13:22:48.823Z,49.60
2018-10-06T13:23:54.877Z,48.90
2018-10-06T13:25:00.362Z,49.00
2018-10-06T13:26:05.884Z,49.10
2018-10-06T13:27:12.019Z,49.10
2018-10-06T13:28:17.469Z,49.00
2018-10-06T13:29:24.627Z,49.10
2018-10-06T13:30:30.360Z,49.00
2018-10-06T13:31:36.163Z,49.00
2018-10-06T13:32:41.638Z,49.00
2018-10-06T13:33:47.259Z,49.10
2018-10-06T13:34:53.761Z,49.20
2018-10-06T13:35:59.511Z,49.30
2018-10-06T13:37:05.968Z,49.40
2018-10-06T13:38:11.525Z,49.40
2018-10-06T13:39:17.020Z,49.40
2018-10-06T13:40:22.484Z,49.40
2018-10-06T13:41:28.986Z,49.40
2018-10-06T13:42:35.462Z,49.50
2018-10-06T13:43:41.905Z,49.50
2018-10-06T13:44:47.346Z,49.40
2018-10-06T13:45:52.759Z,49.50
2018-10-06T13:46:58.317Z,49.40
2018-10-06T13:48:03.756Z,49.40
2018-10-06T13:49:10.023Z,49.40
2018-10-06T13:50:15.996Z,49.40
2018-10-06T13:51:21.258Z,49.50
2018-10-06T13:52:27.380Z,49.40
2018-10-06T13:53:32.681Z,49.40
2018-10-06T13:54:38.220Z,49.50
2018-10-06T13:55:44.442Z,49.40
2018-10-06T13:56:49.827Z,49.30
2018-10-06T13:57:55.209Z,49.30
2018-10-06T13:59:00.614Z,49.30
2018-10-06T14:00:07.150Z,49.10
2018-10-06T14:01:12.524Z,49.00
2018-10-06T14:02:17.875Z,49.10
2018-10-06T14:03:23.188Z,49.20
2018-10-06T14:04:29.402Z,49.20
2018-10-06T14:05:34.813Z,49.10
2018-10-06T14:06:40.435Z,49.10
2018-10-06T14:07:45.853Z,49.10
2018-10-06T14:08:51.179Z,49.00
2018-10-06T14:09:56.449Z,49.00
2018-10-06T14:11:02.637Z,49.00